Time;durP1;ratioP1;P1;durP2;ratioP2;P2;SDS_P1;SDS_P2;PMS_P1;PMS_P2;Temp;Humidity;BMP_temperature;BMP_pressure;BME280_temperature;BME280_humidity;BME280_pressure;Samples;Min_cycle;Max_cycle;Signal;HPM_P1;HPM_P2
2022/08/08 00:02:03;;;;;;;15.90;10.48;;;16.80;99.90;;;;;;5047748;28;25155;-73
2022/08/08 00:04:47;;;;;;;13.05;10.35;;;16.80;99.90;;;;;;5041708;28;25066;-74
2022/08/08 00:07:33;;;;;;;15.73;11.43;;;16.70;99.90;;;;;;5037173;28;25073;-74
2022/08/08 00:10:19;;;;;;;15.02;12.35;;;16.70;99.90;;;;;;5036315;28;25062;-73
2022/08/08 00:13:03;;;;;;;15.48;11.80;;;16.60;99.90;;;;;;5045104;28;25159;-74
2022/08/08 00:15:37;;;;;;;18.20;11.68;;;16.60;99.90;;;;;;5033220;28;25136;-73
2022/08/08 00:18:15;;;;;;;16.67;12.13;;;16.60;99.90;;;;;;5035602;28;25060;-73
2022/08/08 00:20:51;;;;;;;18.88;12.02;;;16.60;99.90;;;;;;5033564;28;25066;-73
2022/08/08 00:23:33;;;;;;;15.52;12.13;;;16.50;99.90;;;;;;5041043;28;25079;-72
2022/08/08 00:26:02;;;;;;;14.68;11.35;;;16.50;99.90;;;;;;5027337;28;25099;-74
2022/08/08 00:28:40;;;;;;;15.75;12.35;;;16.50;99.90;;;;;;5039399;28;25083;-74
2022/08/08 00:31:32;;;;;;;21.23;12.88;;;16.50;99.90;;;;;;5043932;28;25076;-72
2022/08/08 00:37:16;;;;;;;17.20;11.55;;;16.50;99.90;;;;;;5036490;28;25130;-73
2022/08/08 00:39:55;;;;;;;16.60;11.30;;;16.50;99.90;;;;;;5048983;28;25076;-73
2022/08/08 00:42:40;;;;;;;19.58;11.40;;;16.60;99.90;;;;;;5037440;28;25067;-71
2022/08/08 00:45:46;;;;;;;19.92;11.07;;;16.50;99.90;;;;;;5029084;28;25050;-72
2022/08/08 00:48:34;;;;;;;15.75;10.40;;;16.60;99.90;;;;;;5037619;28;25081;-73
2022/08/08 00:51:27;;;;;;;13.57;9.52;;;16.60;99.90;;;;;;5027683;28;25094;-74
2022/08/08 00:54:01;;;;;;;14.52;9.35;;;16.50;99.90;;;;;;5034696;28;25139;-76
2022/08/08 00:57:01;;;;;;;17.23;11.48;;;16.50;99.90;;;;;;5033475;28;25094;-72
2022/08/08 00:59:41;;;;;;;20.13;10.05;;;16.40;99.90;;;;;;5047590;28;25072;-76
2022/08/08 01:02:57;;;;;;;13.85;9.07;;;16.50;99.90;;;;;;5038052;28;25145;-73
2022/08/08 01:05:44;;;;;;;12.25;8.77;;;16.40;99.90;;;;;;5045632;28;25135;-73
2022/08/08 01:08:44;;;;;;;17.45;9.25;;;16.40;99.90;;;;;;5043252;28;25061;-74
2022/08/08 01:11:51;;;;;;;14.13;8.88;;;16.40;99.90;;;;;;5039107;28;25067;-72
2022/08/08 01:14:35;;;;;;;16.58;9.85;;;16.40;99.90;;;;;;5040083;28;25098;-74
2022/08/08 01:17:19;;;;;;;12.05;8.52;;;16.40;99.90;;;;;;5039072;28;25065;-72
2022/08/08 01:20:29;;;;;;;14.98;9.77;;;16.40;99.90;;;;;;5046608;28;25111;-75
2022/08/08 01:23:26;;;;;;;12.45;9.52;;;16.40;99.90;;;;;;5044192;28;25066;-73
2022/08/08 01:26:16;;;;;;;15.85;10.57;;;16.40;99.90;;;;;;5046845;28;25073;-74
2022/08/08 01:29:25;;;;;;;15.20;9.13;;;16.40;99.90;;;;;;5036305;28;25064;-73
2022/08/08 01:32:09;;;;;;;13.27;9.52;;;16.50;99.90;;;;;;5041262;28;25091;-75
2022/08/08 01:35:23;;;;;;;15.10;9.65;;;16.50;99.90;;;;;;5041670;28;25133;-73
2022/08/08 01:38:07;;;;;;;11.40;8.82;;;16.50;99.90;;;;;;5026927;28;25072;-74
2022/08/08 01:40:49;;;;;;;13.02;8.68;;;16.50;99.90;;;;;;5036686;28;25062;-74
2022/08/08 01:43:41;;;;;;;10.47;8.37;;;16.50;99.90;;;;;;5037979;28;25101;-73
2022/08/08 01:46:12;;;;;;;9.05;8.02;;;16.50;99.90;;;;;;5035494;28;25064;-74
2022/08/08 01:48:50;;;;;;;15.13;8.52;;;16.40;99.90;;;;;;5032934;28;25054;-74
2022/08/08 01:51:57;;;;;;;11.43;8.82;;;16.50;99.90;;;;;;5042434;28;25101;-73
2022/08/08 01:54:57;;;;;;;10.52;8.20;;;16.40;99.90;;;;;;5024631;28;25070;-73
2022/08/08 01:57:41;;;;;;;14.07;8.70;;;16.50;99.90;;;;;;5039475;28;25071;-73
2022/08/08 02:00:10;;;;;;;13.02;8.18;;;16.50;99.90;;;;;;5040793;28;25070;-73
2022/08/08 02:02:53;;;;;;;13.85;8.27;;;16.50;99.90;;;;;;5038476;28;25134;-72
2022/08/08 02:05:30;;;;;;;11.38;8.07;;;16.50;99.90;;;;;;5033367;28;25132;-73
2022/08/08 02:08:10;;;;;;;12.15;7.80;;;16.50;99.90;;;;;;5041285;28;25106;-75
2022/08/08 02:10:45;;;;;;;12.27;9.05;;;16.50;99.90;;;;;;5036431;28;25092;-73
2022/08/08 02:13:24;;;;;;;11.68;7.78;;;16.50;99.90;;;;;;5035616;28;25100;-72
2022/08/08 02:16:16;;;;;;;17.17;9.38;;;16.50;99.90;;;;;;5040227;28;25159;-76
2022/08/08 02:19:02;;;;;;;12.68;9.25;;;16.50;99.90;;;;;;5026372;28;25058;-73
2022/08/08 02:25:16;;;;;;;13.48;9.75;;;16.50;99.90;;;;;;5033149;28;25046;-73
2022/08/08 02:27:58;;;;;;;12.93;9.02;;;16.40;99.90;;;;;;5038102;28;25049;-73
2022/08/08 02:30:54;;;;;;;14.07;8.88;;;16.40;99.90;;;;;;5042231;28;25162;-76
2022/08/08 02:33:43;;;;;;;12.98;8.95;;;16.50;99.90;;;;;;5037969;28;25066;-73
2022/08/08 02:36:37;;;;;;;12.25;9.20;;;16.40;99.90;;;;;;5031231;28;25073;-73
2022/08/08 02:39:03;;;;;;;19.90;8.65;;;16.50;99.90;;;;;;5031641;28;25068;-73
2022/08/08 02:41:41;;;;;;;13.57;8.52;;;16.40;99.90;;;;;;5046735;28;25073;-76
2022/08/08 02:44:38;;;;;;;10.55;7.75;;;16.50;99.90;;;;;;5038745;28;25049;-72
2022/08/08 02:47:35;;;;;;;15.98;8.07;;;16.50;99.90;;;;;;5036705;28;25057;-73
2022/08/08 02:50:49;;;;;;;14.45;8.35;;;16.40;99.90;;;;;;5035145;28;25069;-73
2022/08/08 02:53:36;;;;;;;12.70;8.77;;;16.40;99.90;;;;;;5024779;28;25006;-73
2022/08/08 02:56:02;;;;;;;13.48;8.32;;;16.50;99.90;;;;;;5032706;28;25066;-72
2022/08/08 02:59:06;;;;;;;11.90;6.95;;;16.60;99.90;;;;;;5038631;28;25163;-72
2022/08/08 03:01:40;;;;;;;18.95;7.65;;;16.50;99.90;;;;;;5037623;28;25080;-73
2022/08/08 03:04:24;;;;;;;9.90;7.25;;;16.60;99.90;;;;;;5037362;28;25058;-74
2022/08/08 03:07:34;;;;;;;12.45;7.10;;;16.70;99.90;;;;;;5036312;28;25100;-76
2022/08/08 03:10:20;;;;;;;8.30;6.78;;;16.70;99.90;;;;;;5016879;28;25258;-72
2022/08/08 03:13:19;;;;;;;14.02;7.78;;;16.60;99.90;;;;;;5039520;28;25070;-73
2022/08/08 03:16:19;;;;;;;11.45;6.85;;;16.60;99.90;;;;;;5049050;28;25089;-74
2022/08/08 03:18:53;;;;;;;9.85;6.45;;;16.70;99.90;;;;;;5049798;28;25051;-72
2022/08/08 03:21:18;;;;;;;10.00;7.57;;;16.50;99.90;;;;;;5043837;28;25129;-73
2022/08/08 03:23:45;;;;;;;9.80;6.72;;;16.50;99.90;;;;;;5037016;28;25237;-72
2022/08/08 03:26:15;;;;;;;9.20;6.97;;;16.70;99.90;;;;;;5039663;28;25054;-74
2022/08/08 03:28:48;;;;;;;17.17;7.38;;;16.70;99.90;;;;;;5039182;28;24781;-74
2022/08/08 03:34:04;;;;;;;12.10;8.38;;;16.70;99.90;;;;;;5037642;28;25056;-71
2022/08/08 03:36:30;;;;;;;12.65;8.45;;;16.40;99.90;;;;;;5045081;28;25064;-72
2022/08/08 03:38:57;;;;;;;13.35;9.52;;;16.50;99.90;;;;;;5037032;28;25062;-73
2022/08/08 03:41:31;;;;;;;12.82;9.75;;;16.50;99.90;;;;;;5040036;28;25067;-75
2022/08/08 03:43:57;;;;;;;15.85;9.60;;;16.60;99.90;;;;;;5044076;28;25067;-73
2022/08/08 03:46:23;;;;;;;23.00;10.68;;;16.60;99.90;;;;;;5038665;28;25111;-72
2022/08/08 03:49:00;;;;;;;19.30;11.55;;;16.40;99.90;;;;;;5043336;28;25139;-75
2022/08/08 03:51:26;;;;;;;18.92;12.93;;;16.20;99.90;;;;;;5036329;28;25089;-74
2022/08/08 03:53:53;;;;;;;17.08;12.60;;;16.10;99.90;;;;;;5050566;28;25116;-75
2022/08/08 03:56:20;;;;;;;21.42;12.32;;;16.00;99.90;;;;;;5044023;28;25052;-72
2022/08/08 03:58:49;;;;;;;18.92;13.07;;;16.00;99.90;;;;;;5053983;28;25145;-72
2022/08/08 04:01:15;;;;;;;18.73;12.73;;;16.00;99.90;;;;;;5044607;28;25139;-76
2022/08/08 04:03:45;;;;;;;19.05;13.02;;;16.00;99.90;;;;;;5044135;28;25051;-71
2022/08/08 04:06:10;;;;;;;18.70;13.25;;;16.00;99.90;;;;;;5041350;28;25112;-73
2022/08/08 04:08:37;;;;;;;20.15;14.45;;;16.00;99.90;;;;;;5046248;28;25100;-72
2022/08/08 04:11:04;;;;;;;19.23;14.65;;;16.00;99.90;;;;;;5034941;28;25107;-74
2022/08/08 04:13:30;;;;;;;17.83;14.27;;;16.00;99.90;;;;;;5032356;28;25103;-73
2022/08/08 04:15:55;;;;;;;16.23;14.25;;;16.00;99.90;;;;;;5036353;28;25120;-75
2022/08/08 04:18:21;;;;;;;23.02;14.73;;;15.90;99.90;;;;;;5050455;28;25102;-75
2022/08/08 04:20:47;;;;;;;18.23;14.10;;;15.90;99.90;;;;;;5041785;28;25072;-72
2022/08/08 04:23:12;;;;;;;16.33;13.27;;;16.00;99.90;;;;;;5048951;28;25107;-75
2022/08/08 04:25:39;;;;;;;15.18;12.48;;;16.10;99.90;;;;;;5039330;28;25042;-73
2022/08/08 04:28:04;;;;;;;19.20;13.00;;;16.10;99.90;;;;;;5048213;28;25097;-74
2022/08/08 04:30:30;;;;;;;20.00;11.45;;;16.20;99.90;;;;;;5041962;28;25088;-73
2022/08/08 04:32:56;;;;;;;29.23;13.18;;;16.20;99.90;;;;;;5049210;28;25087;-75
2022/08/08 04:35:21;;;;;;;18.88;12.70;;;16.20;99.90;;;;;;5047118;28;25063;-74
2022/08/08 04:37:47;;;;;;;18.58;10.68;;;16.20;99.90;;;;;;5052106;28;25157;-74
2022/08/08 04:40:13;;;;;;;16.45;10.85;;;16.20;99.90;;;;;;5055800;28;25082;-74
2022/08/08 04:42:38;;;;;;;16.80;11.52;;;16.20;99.90;;;;;;5052193;28;25159;-73
2022/08/08 04:45:05;;;;;;;17.23;12.35;;;16.30;99.90;;;;;;5048311;28;25142;-74
2022/08/08 04:47:30;;;;;;;15.73;11.85;;;16.20;99.90;;;;;;5038961;28;25125;-74
2022/08/08 04:49:56;;;;;;;15.75;11.52;;;16.20;99.90;;;;;;5039823;28;25065;-73
2022/08/08 04:52:22;;;;;;;17.10;10.18;;;16.30;99.90;;;;;;5034531;28;25077;-74
2022/08/08 04:54:47;;;;;;;19.25;10.90;;;16.40;99.90;;;;;;5043042;28;25067;-73
2022/08/08 04:57:13;;;;;;;25.25;11.20;;;16.40;99.90;;;;;;5049457;28;25123;-74
2022/08/08 04:59:39;;;;;;;19.20;10.73;;;16.30;99.90;;;;;;5046175;28;25086;-74
2022/08/08 05:02:04;;;;;;;18.85;11.05;;;16.30;99.90;;;;;;5054350;28;25073;-73
2022/08/08 05:04:30;;;;;;;18.85;10.45;;;16.40;99.90;;;;;;5049222;28;25082;-73
2022/08/08 05:06:56;;;;;;;16.08;11.02;;;16.40;99.90;;;;;;5052056;28;25026;-73
2022/08/08 05:09:21;;;;;;;19.27;10.48;;;16.40;99.90;;;;;;5037814;28;25173;-73
2022/08/08 05:11:48;;;;;;;17.02;10.63;;;16.40;99.90;;;;;;5047355;28;25081;-74
2022/08/08 05:14:14;;;;;;;19.27;9.45;;;16.50;99.90;;;;;;5044635;28;25150;-72
2022/08/08 05:16:40;;;;;;;16.25;10.20;;;16.60;99.90;;;;;;5054045;28;25091;-73
2022/08/08 05:19:11;;;;;;;12.98;8.85;;;16.60;99.90;;;;;;5041688;28;25055;-72
2022/08/08 05:21:46;;;;;;;13.85;9.30;;;16.60;99.90;;;;;;5046269;28;25070;-74
2022/08/08 05:24:11;;;;;;;12.85;9.73;;;16.60;99.90;;;;;;5040427;28;25051;-71
2022/08/08 05:26:38;;;;;;;14.05;9.30;;;16.60;99.90;;;;;;5040195;28;24935;-74
2022/08/08 05:29:07;;;;;;;16.55;9.38;;;16.70;99.90;;;;;;5045167;28;25132;-73
2022/08/08 05:31:33;;;;;;;11.13;8.88;;;16.70;99.90;;;;;;5049731;28;25066;-73
2022/08/08 05:33:59;;;;;;;17.60;8.50;;;16.80;99.90;;;;;;5045649;28;25167;-73
2022/08/08 05:36:26;;;;;;;14.32;8.75;;;16.80;99.90;;;;;;5038080;28;25075;-76
2022/08/08 05:38:52;;;;;;;16.85;8.85;;;16.80;99.90;;;;;;5036628;28;25074;-76
2022/08/08 05:41:23;;;;;;;10.00;7.60;;;16.80;99.90;;;;;;5042368;28;25113;-74
2022/08/08 05:43:49;;;;;;;14.98;9.45;;;16.80;99.90;;;;;;5036100;28;25070;-73
2022/08/08 05:46:15;;;;;;;13.63;8.63;;;16.80;99.90;;;;;;5033915;28;25116;-75
2022/08/08 05:48:42;;;;;;;20.00;9.32;;;16.90;99.90;;;;;;5035384;28;25084;-74
2022/08/08 05:51:08;;;;;;;16.63;10.60;;;17.00;99.90;;;;;;5044398;28;25060;-75
2022/08/08 05:53:34;;;;;;;16.88;9.85;;;17.00;99.90;;;;;;5056681;28;25068;-74
2022/08/08 05:56:01;;;;;;;14.77;9.90;;;17.10;99.90;;;;;;5038916;28;25061;-75
2022/08/08 05:58:31;;;;;;;17.02;9.00;;;17.20;99.90;;;;;;5037515;28;25101;-74
2022/08/08 06:01:01;;;;;;;17.75;7.90;;;17.30;99.90;;;;;;5036761;28;25059;-72
2022/08/08 06:03:29;;;;;;;19.45;8.77;;;17.30;99.90;;;;;;5050020;28;25062;-74
2022/08/08 06:05:57;;;;;;;15.55;8.68;;;17.30;99.90;;;;;;5040078;28;25074;-72
2022/08/08 06:08:30;;;;;;;14.70;8.32;;;17.40;99.90;;;;;;5041274;28;25145;-73
2022/08/08 06:10:57;;;;;;;11.65;6.90;;;17.40;99.90;;;;;;5037177;28;25081;-73
2022/08/08 06:13:25;;;;;;;21.65;8.15;;;17.50;99.90;;;;;;5042015;28;25114;-74
2022/08/08 06:15:54;;;;;;;13.25;7.18;;;17.70;99.90;;;;;;5046105;28;25152;-76
2022/08/08 06:18:22;;;;;;;12.63;7.20;;;17.80;99.90;;;;;;5042126;28;25108;-73
2022/08/08 06:20:50;;;;;;;7.75;5.07;;;17.70;99.90;;;;;;5052558;28;25107;-73
2022/08/08 06:23:16;;;;;;;11.52;6.78;;;17.90;99.90;;;;;;5040323;28;25108;-70
2022/08/08 06:25:42;;;;;;;14.10;6.32;;;17.70;99.90;;;;;;5039356;28;25108;-75
2022/08/08 06:28:14;;;;;;;9.00;5.70;;;17.90;99.90;;;;;;5039333;28;25059;-75
2022/08/08 06:30:43;;;;;;;11.73;7.32;;;18.00;99.90;;;;;;5036806;28;25064;-75
2022/08/08 06:33:11;;;;;;;12.43;6.72;;;18.00;99.90;;;;;;5046689;28;25067;-74
2022/08/08 06:35:44;;;;;;;11.27;5.88;;;18.10;99.90;;;;;;5035503;28;25054;-74
2022/08/08 06:38:10;;;;;;;14.35;6.68;;;18.20;99.90;;;;;;5050472;28;25089;-75
2022/08/08 06:40:39;;;;;;;7.85;5.57;;;18.20;99.90;;;;;;5046871;28;25118;-74
2022/08/08 06:43:09;;;;;;;8.50;5.03;;;18.30;99.90;;;;;;5043059;28;25072;-74
2022/08/08 06:45:37;;;;;;;16.95;5.43;;;18.20;99.90;;;;;;5053391;28;25090;-75
2022/08/08 06:48:04;;;;;;;16.20;5.78;;;18.30;99.90;;;;;;5045385;28;25057;-74
2022/08/08 06:50:31;;;;;;;11.48;5.85;;;18.20;99.90;;;;;;5035559;28;25067;-74
2022/08/08 06:53:01;;;;;;;7.65;5.55;;;18.10;99.90;;;;;;5048915;28;25119;-76
2022/08/08 06:55:30;;;;;;;9.10;5.50;;;18.10;99.90;;;;;;5033274;28;25136;-74
2022/08/08 06:57:56;;;;;;;15.25;7.63;;;18.20;99.90;;;;;;5051068;28;25134;-73
2022/08/08 07:00:22;;;;;;;10.63;5.95;;;18.50;99.90;;;;;;5038883;28;25096;-74
2022/08/08 07:02:53;;;;;;;13.38;6.45;;;18.70;99.90;;;;;;5049954;28;25118;-73
2022/08/08 07:05:23;;;;;;;14.35;5.13;;;18.60;99.90;;;;;;5046405;28;25070;-72
2022/08/08 07:08:11;;;;;;;14.05;7.35;;;18.60;99.90;;;;;;5048802;28;25080;-72
2022/08/08 07:10:40;;;;;;;11.45;6.50;;;18.60;99.90;;;;;;5035074;28;25111;-73
2022/08/08 07:13:08;;;;;;;15.18;5.85;;;18.50;99.90;;;;;;5045863;28;25136;-72
2022/08/08 07:15:43;;;;;;;11.43;5.28;;;18.70;99.90;;;;;;5043419;28;25079;-73
2022/08/08 07:18:09;;;;;;;11.25;5.80;;;18.90;99.90;;;;;;5045035;28;25063;-73
2022/08/08 07:20:37;;;;;;;10.43;5.30;;;19.00;99.90;;;;;;5042567;28;25055;-73
2022/08/08 07:23:24;;;;;;;15.52;5.15;;;19.00;99.90;;;;;;5041054;28;25085;-74
2022/08/08 07:25:51;;;;;;;10.00;4.45;;;19.10;99.90;;;;;;5043298;28;25058;-74
2022/08/08 07:28:21;;;;;;;8.15;4.45;;;19.10;99.90;;;;;;5047417;28;25060;-73
2022/08/08 07:30:47;;;;;;;6.03;3.83;;;19.20;99.90;;;;;;5053981;28;25082;-74
2022/08/08 07:33:14;;;;;;;9.45;4.07;;;19.50;99.90;;;;;;5055053;28;25161;-73
2022/08/08 07:35:40;;;;;;;11.98;3.97;;;19.60;99.90;;;;;;5044493;28;25074;-74
2022/08/08 07:38:08;;;;;;;7.97;3.08;;;19.80;99.90;;;;;;5052498;28;25097;-71
2022/08/08 07:40:34;;;;;;;9.95;3.33;;;20.10;99.90;;;;;;5049896;28;25154;-74
2022/08/08 07:43:01;;;;;;;10.35;2.70;;;20.10;99.90;;;;;;5039109;28;25057;-72
2022/08/08 07:45:28;;;;;;;8.45;3.10;;;19.90;99.90;;;;;;5047075;28;25081;-74
2022/08/08 07:47:57;;;;;;;11.25;3.22;;;19.80;99.90;;;;;;5057361;28;25062;-72
2022/08/08 07:50:25;;;;;;;7.20;3.38;;;19.70;99.90;;;;;;5050283;28;25139;-72
2022/08/08 07:53:06;;;;;;;9.73;3.40;;;19.60;99.90;;;;;;5048972;28;25058;-73
2022/08/08 07:55:31;;;;;;;8.10;3.20;;;19.60;99.90;;;;;;5042014;28;25073;-73
2022/08/08 07:58:12;;;;;;;14.05;3.10;;;19.80;99.90;;;;;;5041233;28;25082;-74
2022/08/08 08:00:50;;;;;;;7.70;2.90;;;20.00;99.90;;;;;;5042696;28;25078;-72
2022/08/08 08:03:40;;;;;;;9.40;2.90;;;20.10;99.90;;;;;;5054234;28;25079;-73
2022/08/08 08:06:10;;;;;;;8.55;3.03;;;20.10;99.90;;;;;;5041917;28;25116;-72
2022/08/08 08:08:41;;;;;;;3.53;2.15;;;20.50;99.90;;;;;;5054084;28;25061;-74
2022/08/08 08:11:15;;;;;;;7.50;2.00;;;20.30;99.90;;;;;;5054905;28;25101;-73
2022/08/08 08:13:53;;;;;;;8.30;3.08;;;20.50;99.90;;;;;;5049679;28;25071;-73
2022/08/08 08:16:27;;;;;;;5.07;3.13;;;20.90;99.90;;;;;;5044558;28;25057;-71
2022/08/08 08:18:58;;;;;;;9.75;3.15;;;21.00;99.90;;;;;;5044427;28;25077;-75
2022/08/08 08:21:27;;;;;;;7.40;3.58;;;21.00;99.90;;;;;;5049693;28;25071;-74
2022/08/08 08:23:52;;;;;;;4.80;2.67;;;21.10;99.90;;;;;;5042247;28;25060;-76
2022/08/08 08:26:18;;;;;;;6.45;2.95;;;21.00;99.90;;;;;;5059547;28;25076;-74
2022/08/08 08:28:44;;;;;;;7.57;3.13;;;20.80;99.90;;;;;;5038126;28;25102;-72
2022/08/08 08:31:09;;;;;;;15.30;3.78;;;21.00;99.90;;;;;;5032423;28;25096;-72
2022/08/08 08:33:35;;;;;;;7.75;2.90;;;20.90;99.90;;;;;;5039551;28;25139;-74
2022/08/08 08:36:03;;;;;;;6.68;2.78;;;21.10;99.90;;;;;;5039397;28;25112;-74
2022/08/08 08:38:30;;;;;;;5.55;2.60;;;21.00;99.90;;;;;;5054330;28;25107;-72
2022/08/08 08:40:57;;;;;;;5.20;2.20;;;20.80;99.90;;;;;;5050025;28;25060;-74
2022/08/08 08:43:23;;;;;;;11.38;3.90;;;21.20;99.90;;;;;;5036595;28;25100;-75
2022/08/08 08:45:49;;;;;;;6.72;2.13;;;21.10;99.90;;;;;;5049707;28;25133;-72
2022/08/08 08:48:18;;;;;;;5.82;2.80;;;21.40;99.90;;;;;;5042426;28;25049;-75
2022/08/08 08:50:48;;;;;;;12.32;2.90;;;21.10;99.90;;;;;;5051155;28;25054;-72
2022/08/08 08:53:14;;;;;;;6.97;2.50;;;21.20;99.90;;;;;;5055048;28;25046;-72
2022/08/08 08:55:42;;;;;;;11.27;2.47;;;21.40;99.90;;;;;;5050060;28;25081;-72
2022/08/08 08:58:18;;;;;;;9.55;3.08;;;21.80;99.90;;;;;;5049405;28;25046;-73
2022/08/08 09:00:44;;;;;;;3.70;1.77;;;22.20;99.90;;;;;;5061120;28;25079;-72
2022/08/08 09:03:10;;;;;;;4.15;1.73;;;22.30;99.90;;;;;;5069743;28;25062;-74
2022/08/08 09:05:39;;;;;;;7.68;1.90;;;21.90;99.90;;;;;;5053772;28;25074;-77
2022/08/08 09:08:07;;;;;;;9.45;2.38;;;21.30;99.90;;;;;;5059979;28;25072;-71
2022/08/08 09:10:37;;;;;;;5.32;1.85;;;21.20;99.90;;;;;;5049239;28;25076;-73
2022/08/08 09:13:05;;;;;;;6.85;1.85;;;22.00;99.90;;;;;;5043126;28;25101;-72
2022/08/08 09:15:31;;;;;;;5.13;1.67;;;22.30;99.90;;;;;;5035438;28;25059;-73
2022/08/08 09:17:57;;;;;;;4.32;1.73;;;22.30;99.90;;;;;;5055934;28;25129;-72
2022/08/08 09:20:25;;;;;;;4.15;1.70;;;22.70;99.90;;;;;;5044304;28;25146;-72
2022/08/08 09:22:52;;;;;;;4.53;1.60;;;22.90;99.90;;;;;;5047753;28;25082;-78
2022/08/08 09:25:19;;;;;;;2.45;1.90;;;23.00;99.90;;;;;;5041595;28;25088;-74
2022/08/08 09:27:45;;;;;;;4.35;2.17;;;22.80;99.90;;;;;;5061564;28;25125;-74
2022/08/08 09:30:13;;;;;;;3.40;1.63;;;22.30;99.90;;;;;;5050332;28;25108;-73
2022/08/08 09:32:41;;;;;;;7.22;2.05;;;21.90;99.90;;;;;;5052224;28;25056;-72
2022/08/08 09:35:17;;;;;;;2.47;1.48;;;22.10;99.90;;;;;;5044067;28;25080;-72
2022/08/08 09:38:01;;;;;;;6.30;1.75;;;21.80;99.90;;;;;;5049684;28;25070;-73
2022/08/08 09:40:29;;;;;;;2.83;1.48;;;21.40;99.90;;;;;;5052751;28;25058;-74
2022/08/08 09:43:17;;;;;;;3.92;1.80;;;21.40;99.90;;;;;;5038809;28;25171;-74
2022/08/08 09:45:59;;;;;;;2.65;1.58;;;21.40;99.90;;;;;;5047686;28;25143;-73
2022/08/08 09:48:29;;;;;;;2.22;1.73;;;21.10;99.90;;;;;;5056603;28;25068;-71
2022/08/08 09:50:56;;;;;;;5.43;1.75;;;20.80;99.90;;;;;;5035985;28;25051;-76
2022/08/08 09:53:29;;;;;;;4.88;1.58;;;20.50;99.90;;;;;;5057994;28;25077;-73
2022/08/08 09:55:56;;;;;;;4.32;1.48;;;20.70;99.90;;;;;;5041293;28;25149;-72
2022/08/08 09:58:24;;;;;;;4.53;1.40;;;21.10;99.90;;;;;;5052464;28;25163;-71
2022/08/08 10:00:54;;;;;;;4.25;1.50;;;21.30;99.90;;;;;;5062152;28;25059;-71
2022/08/08 10:03:23;;;;;;;3.83;1.55;;;21.80;99.90;;;;;;5057444;28;25052;-72
2022/08/08 10:05:49;;;;;;;5.82;1.65;;;22.30;99.90;;;;;;5056105;28;25068;-74
2022/08/08 10:08:14;;;;;;;2.80;1.70;;;22.60;99.90;;;;;;5048237;28;25080;-74
2022/08/08 10:10:42;;;;;;;5.18;1.85;;;22.90;99.90;;;;;;5041768;28;25107;-72
2022/08/08 10:13:18;;;;;;;5.35;1.30;;;22.50;99.90;;;;;;5052082;28;25056;-73
2022/08/08 10:15:53;;;;;;;3.78;1.27;;;22.70;99.90;;;;;;5049783;28;25052;-72
2022/08/08 10:18:30;;;;;;;6.30;1.58;;;23.00;99.90;;;;;;5052671;28;25137;-74
2022/08/08 10:21:18;;;;;;;4.63;1.85;;;23.00;99.90;;;;;;5039067;28;25069;-73
2022/08/08 10:23:48;;;;;;;5.22;1.40;;;22.80;99.90;;;;;;5044666;28;25059;-74
2022/08/08 10:26:23;;;;;;;3.55;1.50;;;22.50;99.90;;;;;;5052728;28;25051;-75
2022/08/08 10:29:06;;;;;;;4.80;1.70;;;22.00;99.90;;;;;;5049061;28;25068;-71
2022/08/08 10:34:20;;;;;;;3.88;1.73;;;21.80;99.90;;;;;;5064509;28;25057;-71
2022/08/08 10:36:47;;;;;;;2.33;1.50;;;21.60;99.90;;;;;;5047450;28;25056;-73
2022/08/08 10:39:23;;;;;;;5.55;1.42;;;21.90;99.90;;;;;;5050442;28;25118;-73
2022/08/08 10:42:00;;;;;;;4.65;1.40;;;22.00;99.90;;;;;;5050281;28;25079;-73
2022/08/08 10:44:34;;;;;;;3.08;1.52;;;21.80;99.90;;;;;;5051292;28;25166;-73
2022/08/08 10:47:19;;;;;;;3.75;1.52;;;21.90;99.90;;;;;;5043063;28;25070;-74
2022/08/08 10:49:59;;;;;;;6.25;1.80;;;21.90;99.90;;;;;;5053892;28;25148;-73
2022/08/08 10:52:39;;;;;;;2.33;1.55;;;22.10;99.90;;;;;;5077138;28;25132;-73
2022/08/08 10:55:09;;;;;;;3.28;1.40;;;22.20;99.90;;;;;;5056944;28;25104;-72
2022/08/08 10:57:43;;;;;;;6.68;1.58;;;22.10;99.90;;;;;;5066831;28;25149;-74
2022/08/08 11:00:11;;;;;;;3.42;1.60;;;22.90;99.90;;;;;;5067893;28;25070;-74
2022/08/08 11:02:38;;;;;;;3.53;1.50;;;22.70;99.90;;;;;;5063329;28;25066;-74
2022/08/08 11:05:06;;;;;;;6.53;1.60;;;22.80;99.90;;;;;;5059342;28;25083;-75
2022/08/08 11:07:37;;;;;;;2.90;1.70;;;23.20;99.90;;;;;;5073427;28;25071;-73
2022/08/08 11:10:08;;;;;;;4.80;1.45;;;23.40;99.90;;;;;;5074549;28;25126;-74
2022/08/08 11:12:53;;;;;;;5.32;1.90;;;23.20;99.90;;;;;;5051421;28;25077;-73
2022/08/08 11:15:24;;;;;;;2.72;1.20;;;23.50;99.90;;;;;;5050207;28;25078;-72
2022/08/08 11:17:51;;;;;;;2.80;1.35;;;23.80;99.90;;;;;;5049583;28;25133;-76
2022/08/08 11:20:18;;;;;;;4.25;1.63;;;24.50;99.90;;;;;;5055706;28;25114;-76
2022/08/08 11:22:48;;;;;;;7.65;1.70;;;24.60;99.90;;;;;;5055648;28;25050;-75
2022/08/08 11:25:14;;;;;;;5.88;1.60;;;24.50;99.90;;;;;;5049247;28;25060;-75
2022/08/08 11:27:41;;;;;;;3.38;1.95;;;24.00;99.90;;;;;;5052221;28;25055;-75
2022/08/08 11:30:08;;;;;;;8.25;1.85;;;23.50;99.90;;;;;;5048009;28;25065;-74
2022/08/08 11:32:39;;;;;;;6.00;1.70;;;23.30;99.90;;;;;;5051282;28;25064;-73
2022/08/08 11:35:12;;;;;;;5.72;1.58;;;23.90;99.90;;;;;;5036415;28;25057;-72
2022/08/08 11:37:40;;;;;;;6.20;1.65;;;24.60;99.90;;;;;;5037558;28;25130;-73
2022/08/08 11:40:08;;;;;;;7.60;1.67;;;24.70;99.90;;;;;;5042619;28;25062;-73
2022/08/08 11:42:35;;;;;;;2.45;1.60;;;24.70;99.90;;;;;;5040436;28;25065;-74
2022/08/08 11:45:03;;;;;;;1.83;1.70;;;24.30;99.90;;;;;;5047813;28;25101;-73
2022/08/08 11:47:29;;;;;;;6.45;1.92;;;23.70;99.90;;;;;;5040926;28;25147;-74
2022/08/08 11:49:59;;;;;;;4.68;1.60;;;24.00;99.90;;;;;;5041055;28;25091;-73
2022/08/08 11:52:25;;;;;;;4.00;1.48;;;23.90;99.90;;;;;;5049433;28;25072;-74
2022/08/08 11:54:51;;;;;;;3.92;1.50;;;24.40;99.90;;;;;;5032871;28;25068;-75
2022/08/08 11:57:17;;;;;;;3.55;1.58;;;25.20;99.90;;;;;;5042168;28;25061;-75
2022/08/08 12:00:00;;;;;;;3.15;1.30;;;24.30;99.40;;;;;;5041435;28;25082;-74
2022/08/08 12:02:27;;;;;;;3.38;1.63;;;24.30;99.90;;;;;;5049382;28;25069;-73
2022/08/08 12:05:01;;;;;;;4.13;1.25;;;23.80;99.90;;;;;;5047523;28;25072;-73
2022/08/08 12:07:27;;;;;;;3.75;1.13;;;23.30;99.90;;;;;;5041392;28;25060;-75
2022/08/08 12:09:55;;;;;;;6.43;1.60;;;23.40;99.90;;;;;;5054851;28;25081;-74
2022/08/08 12:12:25;;;;;;;7.32;1.83;;;23.80;99.90;;;;;;5048448;28;25115;-75
2022/08/08 12:15:03;;;;;;;6.20;1.55;;;23.80;99.90;;;;;;5049546;28;25067;-76
2022/08/08 12:17:46;;;;;;;4.18;2.08;;;23.50;99.90;;;;;;5062952;28;25083;-76
2022/08/08 12:20:12;;;;;;;8.10;1.85;;;23.70;99.90;;;;;;5055645;28;25072;-77
2022/08/08 12:22:52;;;;;;;8.07;1.90;;;24.00;99.90;;;;;;5045251;28;25139;-75
2022/08/08 12:25:23;;;;;;;6.03;1.67;;;24.00;99.90;;;;;;5047286;28;25070;-75
2022/08/08 12:27:50;;;;;;;3.55;1.77;;;24.20;99.90;;;;;;5046506;28;25062;-74
2022/08/08 12:30:15;;;;;;;4.70;1.60;;;23.90;99.90;;;;;;5049470;28;25102;-76
2022/08/08 12:32:43;;;;;;;5.45;1.83;;;24.60;99.90;;;;;;5058535;28;25096;-74
2022/08/08 12:35:21;;;;;;;2.60;1.63;;;24.60;99.90;;;;;;5036167;28;25076;-74
2022/08/08 12:38:10;;;;;;;7.60;1.83;;;24.90;99.90;;;;;;5049572;28;25067;-74
2022/08/08 12:40:55;;;;;;;4.32;2.05;;;24.30;99.90;;;;;;5070694;28;25072;-74
2022/08/08 12:43:32;;;;;;;6.65;1.70;;;23.20;99.90;;;;;;5060298;28;25053;-77
2022/08/08 12:45:57;;;;;;;4.63;2.33;;;23.20;99.90;;;;;;5035931;28;25065;-77
2022/08/08 12:48:24;;;;;;;7.03;1.90;;;23.30;99.90;;;;;;5039682;28;25093;-75
2022/08/08 12:50:53;;;;;;;4.40;1.85;;;23.00;99.90;;;;;;5051610;28;25073;-75
2022/08/08 12:53:19;;;;;;;5.10;2.05;;;22.90;99.90;;;;;;5044686;28;25169;-77
2022/08/08 12:56:11;;;;;;;3.22;1.48;;;23.20;99.90;;;;;;5060799;28;25118;-76
2022/08/08 12:58:46;;;;;;;6.68;1.70;;;24.00;99.90;;;;;;5045238;28;25085;-77
2022/08/08 13:01:12;;;;;;;2.45;1.40;;;24.60;99.90;;;;;;5045524;28;25086;-76
2022/08/08 13:03:49;;;;;;;5.65;1.67;;;24.70;99.90;;;;;;5044596;28;25175;-73
2022/08/08 13:06:19;;;;;;;3.53;1.45;;;24.30;99.90;;;;;;5051141;28;25051;-76
2022/08/08 13:08:47;;;;;;;2.88;1.48;;;23.60;99.90;;;;;;5059623;28;25131;-77
2022/08/08 13:11:22;;;;;;;4.70;1.48;;;23.30;99.90;;;;;;5060860;28;25116;-75
2022/08/08 13:14:02;;;;;;;5.53;1.83;;;23.00;99.90;;;;;;5076336;28;25081;-76
2022/08/08 13:16:31;;;;;;;4.72;1.92;;;23.10;99.90;;;;;;5081728;28;25050;-77
2022/08/08 13:18:57;;;;;;;5.75;2.10;;;23.00;99.90;;;;;;5065902;28;25101;-77
2022/08/08 13:21:23;;;;;;;7.35;1.70;;;23.60;99.90;;;;;;5060891;28;25053;-76
2022/08/08 13:23:49;;;;;;;2.47;1.73;;;24.10;99.90;;;;;;5062578;28;25089;-76
2022/08/08 13:26:14;;;;;;;4.03;1.50;;;24.30;99.90;;;;;;5047229;28;25083;-77